Terminal Aerodrome Forecast
Issued by NWS

Home | Current Version | Previous Version | Text Only | Print | Product List | Glossary On
Versions: 1 2 3 4 5 6 7 8 9 10 11 12 13 14 15 16 17 18 19 20 21 22 23 24 25 26
000
FTUS46 KMTR 212300
TAFSFO
TAF
KSFO 212320Z 2200/2306 28012KT P6SM FEW006 BKN009
      TEMPO 2200/2201 SCT009 BKN025
     FM220300 29007KT P6SM SCT009 BKN012
     FM220900 30004KT 5SM BR BKN007 OVC012
     FM221800 31005KT P6SM SCT007 OVC015
     FM222300 29011KT P6SM BKN025=

USA.gov is the U.S. government's official web portal to all federal, state and local government web resources and services.